Accueil
METAR-TAF:

METAR-TAF

Aéroports :

Base aérienne de Schaffen

Diest, Belgique

latitude: 51-00N, longitude: 005-04E, altitude: 30 m

Observation

Le bulletin a été fait il y a 38 minutes, à 20:55 UTC
Vent 13 kt de nord-est
Température 4°C
Humidité 70%
Pression 1013 hPa
Visibilité 10 km ou plus

METAR: EBDT 192055Z AUTO 05013KT 9999 BKN043/// OVC049/// 04/M01 Q1013 BLU

Heure: 22:33 (21:33 UTC)

Prévision

Le bulletin a été fait il y a 9 heures et 52 minutes, à 11:41 UTC
Prévision valable du 19 à 13 UTC au 19 à 22 UTC
Vent 13 kt de nord-est avec des rafales jusqu'à 25 kt
Visibilité 10 km ou plus
Nuages fragmentés à une hauteur de 1600 ft
Probabilité 40% :
Temporairement
du 19 à 13 UTC au 19 à 22 UTC
Vent 15 kt de est/nord-est avec des rafales jusqu'à 32 kt
Nuages fragmentés à une hauteur de 1500 ft
faibles averses de pluie

TAF: EBDT 191141Z 1913/1922 05013G25KT 9999 BKN016 PROB40 TEMPO 1913/1922 06015G32KT -SHRA BKN015

Observations et prévisions météorologiques de plus de 4000 aéroports (messages METAR et TAF).

Les stations disponibles sont représentées par des disques jaunes et rouges sur la carte.

Passer la souris dessus pour voir le nom de la station.

Cliquer dessus pour voir les observations et prévisions météorologiques.

Pour changer de carte: cliquez sur les boutons verts avec une croix noire pour zoomer, sur le bouton vert avec un tiret pour effectuer un zoom arrière, ou sur les flèches vertes pour les cartes adjacentes.


METAR-TAF: